createdAt,value
2023-02-27T00:00:18.325Z,99652.19
2023-02-27T00:02:48.265Z,99657.59
2023-02-27T00:05:16.280Z,99662.97
2023-02-27T00:07:43.972Z,99668.16
2023-02-27T00:10:12.072Z,99675.41
2023-02-27T00:12:39.810Z,99675.41
2023-02-27T00:15:07.826Z,99679.13
2023-02-27T00:17:35.487Z,99674.56
2023-02-27T00:20:04.868Z,99670.25
2023-02-27T00:22:32.472Z,99676.69
2023-02-27T00:25:00.568Z,99668.59
2023-02-27T00:27:28.307Z,99670.44
2023-02-27T00:29:55.948Z,99676.69
2023-02-27T00:32:23.661Z,99682.28
2023-02-27T00:34:51.407Z,99689.31
2023-02-27T00:37:20.495Z,99695.75
2023-02-27T00:39:48.152Z,99686.84
2023-02-27T00:42:15.813Z,99694.13
2023-02-27T00:44:43.523Z,99695.97
2023-02-27T00:47:11.229Z,99694.13
2023-02-27T00:49:38.859Z,99688.94
2023-02-27T00:52:06.614Z,99692.44
2023-02-27T00:54:35.693Z,99690.81
2023-02-27T00:57:03.397Z,99698.88
2023-02-27T00:59:31.091Z,99696.19
2023-02-27T01:01:58.725Z,99699.09
2023-02-27T01:04:26.542Z,99708.00
2023-02-27T01:06:54.200Z,99718.78
2023-02-27T01:09:21.863Z,99713.38
2023-02-27T01:11:50.909Z,99715.06
2023-02-27T01:14:18.552Z,99723.13
2023-02-27T01:16:46.189Z,99728.28
2023-02-27T01:19:13.809Z,99732.84
2023-02-27T01:21:42.168Z,99734.53
2023-02-27T01:24:09.996Z,99732.84
2023-02-27T01:26:37.684Z,99731.22
2023-02-27T01:29:06.833Z,99730.16
2023-02-27T01:31:34.604Z,99739.28
2023-02-27T01:34:02.372Z,99751.94
2023-02-27T01:36:30.239Z,99757.53
2023-02-27T01:38:57.972Z,99765.63
2023-02-27T01:41:25.912Z,99774.75
2023-02-27T01:43:54.807Z,99786.34
2023-02-27T01:46:23.904Z,99783.88
2023-02-27T01:48:54.421Z,99790.06
2023-02-27T01:51:22.081Z,99794.63
2023-02-27T01:53:50.773Z,99806.22
2023-02-27T01:56:23.162Z,99814.31
2023-02-27T01:58:51.161Z,99808.09
2023-02-27T02:01:18.875Z,99800.03
2023-02-27T02:03:49.216Z,99788.44
2023-02-27T02:06:16.945Z,99803.78
2023-02-27T02:08:45.422Z,99807.50
2023-02-27T02:11:13.393Z,99812.88
2023-02-27T02:13:41.383Z,99820.13
2023-02-27T02:16:13.852Z,99827.41
2023-02-27T02:18:43.468Z,99819.31
2023-02-27T02:21:23.913Z,99828.47
2023-02-27T02:24:21.864Z,99823.66
2023-02-27T02:26:52.420Z,99835.28
2023-02-27T02:29:38.398Z,99832.34
2023-02-27T02:32:39.342Z,99847.69
2023-02-27T02:35:25.488Z,99849.56
2023-02-27T02:38:08.058Z,99864.06
2023-02-27T02:40:40.552Z,99869.44
2023-02-27T02:43:09.811Z,99875.88
2023-02-27T02:45:40.214Z,99882.91
2023-02-27T02:48:10.526Z,99887.47
2023-02-27T02:50:40.338Z,99890.41
2023-02-27T02:53:09.775Z,99896.59
2023-02-27T02:55:38.805Z,99888.72
2023-02-27T02:58:09.713Z,99894.13
2023-02-27T03:00:38.188Z,99905.75
2023-02-27T03:03:06.915Z,99915.66
2023-02-27T03:05:36.079Z,99923.97
2023-02-27T03:08:04.578Z,99926.66
2023-02-27T03:10:32.477Z,99927.50
2023-02-27T03:13:01.228Z,99926.44
2023-02-27T03:15:31.105Z,99933.94
2023-02-27T03:18:00.629Z,99937.66
2023-02-27T03:20:29.414Z,99934.94
2023-02-27T03:22:57.740Z,99934.94
2023-02-27T03:25:25.852Z,99946.53
2023-02-27T03:27:54.295Z,99941.38
2023-02-27T03:30:24.461Z,99953.81
2023-02-27T03:32:56.895Z,99956.50
2023-02-27T03:35:24.972Z,99962.94
2023-02-27T03:37:55.249Z,99973.72
2023-02-27T03:40:25.850Z,99972.66
2023-02-27T03:42:54.944Z,99989.88
2023-02-27T03:45:24.851Z,99998.97
2023-02-27T03:47:52.584Z,100001.88
2023-02-27T03:50:21.657Z,100006.22
2023-02-27T03:52:49.319Z,100010.59
2023-02-27T03:55:17.212Z,100022.19
2023-02-27T03:57:45.356Z,100025.06
2023-02-27T04:00:16.867Z,100026.94
2023-02-27T04:02:45.320Z,100026.94
2023-02-27T04:05:12.968Z,100034.22
2023-02-27T04:07:44.521Z,100032.34
2023-02-27T04:10:20.673Z,100033.38
2023-02-27T04:12:58.347Z,100032.53
2023-02-27T04:15:27.839Z,100037.91
2023-02-27T04:17:56.736Z,100036.91
2023-02-27T04:20:34.177Z,100046.63
2023-02-27T04:23:03.843Z,100042.28
2023-02-27T04:25:34.236Z,100045.81
2023-02-27T04:28:04.077Z,100039.38
2023-02-27T04:30:32.960Z,100041.25
2023-02-27T04:33:03.683Z,100038.34
2023-02-27T04:35:32.928Z,100046.44
2023-02-27T04:38:01.120Z,100059.88
2023-02-27T04:40:30.719Z,100070.44
2023-02-27T04:42:58.404Z,100077.69
2023-02-27T04:45:27.067Z,100077.06
2023-02-27T04:47:56.114Z,100082.47
2023-02-27T04:50:25.039Z,100091.59
2023-02-27T04:52:53.672Z,100099.66
2023-02-27T04:55:22.338Z,100089.94
2023-02-27T04:57:52.368Z,100083.72
2023-02-27T05:00:20.414Z,100089.94
2023-02-27T05:02:48.732Z,100103.41
2023-02-27T05:05:17.425Z,100113.31
2023-02-27T05:07:46.351Z,100117.06
2023-02-27T05:10:15.622Z,100127.84
2023-02-27T05:12:45.017Z,100139.44
2023-02-27T05:15:15.463Z,100149.38
2023-02-27T05:17:44.944Z,100153.94
2023-02-27T05:20:12.957Z,100148.56
2023-02-27T05:22:46.486Z,100152.91
2023-02-27T05:25:15.538Z,100170.13
2023-02-27T05:27:43.800Z,100172.81
2023-02-27T05:30:12.634Z,100179.22
2023-02-27T05:32:43.005Z,100187.28
2023-02-27T05:35:12.672Z,100188.34
2023-02-27T05:37:42.466Z,100195.38
2023-02-27T05:40:11.185Z,100192.66
2023-02-27T05:42:39.545Z,100198.91
2023-02-27T05:45:08.365Z,100205.94
2023-02-27T05:47:37.015Z,100205.94
2023-02-27T05:50:07.080Z,100206.75
2023-02-27T05:52:34.744Z,100208.63
2023-02-27T05:55:03.176Z,100217.53
2023-02-27T05:57:32.090Z,100219.41
2023-02-27T06:00:00.770Z,100219.41
2023-02-27T06:02:28.519Z,100219.41
2023-02-27T06:04:56.250Z,100228.13
2023-02-27T06:07:25.291Z,100227.28
2023-02-27T06:09:53.005Z,100233.50
2023-02-27T06:12:20.734Z,100238.06
2023-02-27T06:14:48.418Z,100228.13
2023-02-27T06:17:16.195Z,100237.03
2023-02-27T06:19:43.864Z,100241.34
2023-02-27T06:22:11.524Z,100250.47
2023-02-27T06:24:40.705Z,100248.63
2023-02-27T06:27:08.390Z,100260.22
2023-02-27T06:29:36.066Z,100259.19
2023-02-27T06:32:03.852Z,100266.22
2023-02-27T06:34:31.545Z,100267.28
2023-02-27T06:36:59.225Z,100276.19
2023-02-27T06:39:26.885Z,100293.16
2023-02-27T06:41:55.872Z,100292.13
2023-02-27T06:44:23.605Z,100293.78
2023-02-27T06:46:51.293Z,100300.00
2023-02-27T06:49:19.007Z,100308.91
2023-02-27T06:51:46.750Z,100298.13
2023-02-27T06:54:14.409Z,100308.47
2023-02-27T06:56:42.107Z,100312.22
2023-02-27T06:59:11.233Z,100311.16
2023-02-27T07:01:38.952Z,100309.34
2023-02-27T07:04:06.605Z,100302.06
2023-02-27T07:07:33.070Z,100311.81
2023-02-27T07:09:23.213Z,100316.38
2023-02-27T07:11:51.418Z,100313.47
2023-02-27T07:14:20.507Z,100309.94
2023-02-27T07:16:51.066Z,100301.03
2023-02-27T07:19:19.202Z,100303.72
2023-02-27T07:21:46.853Z,100303.72
2023-02-27T07:24:14.608Z,100312.63
2023-02-27T07:26:42.300Z,100318.88
2023-02-27T07:29:10.122Z,100317.19
2023-02-27T07:31:39.180Z,100326.94
2023-02-27T07:34:06.976Z,100329.63
2023-02-27T07:36:34.792Z,100343.94
2023-02-27T07:39:03.691Z,100346.63
2023-02-27T07:41:31.392Z,100358.22
2023-02-27T07:43:59.134Z,100361.97
2023-02-27T07:46:27.943Z,100374.38
2023-02-27T07:48:57.327Z,100365.25
2023-02-27T07:51:25.044Z,100376.91
2023-02-27T07:53:52.689Z,100373.34
2023-02-27T07:56:20.516Z,100366.94
2023-02-27T07:58:48.254Z,100367.56
2023-02-27T08:01:18.286Z,100373.97
2023-02-27T08:03:46.598Z,100369.22
2023-02-27T08:06:15.608Z,100363.81
2023-02-27T08:08:43.994Z,100362.78
2023-02-27T08:11:11.737Z,100365.28
2023-02-27T08:13:59.615Z,100367.16
2023-02-27T08:16:28.336Z,100371.50
2023-02-27T08:18:57.265Z,100371.28
2023-02-27T08:21:26.899Z,100370.47
2023-02-27T08:23:55.098Z,100373.16
2023-02-27T08:26:23.431Z,100373.16
2023-02-27T08:28:51.033Z,100373.16
2023-02-27T08:31:19.451Z,100382.06
2023-02-27T08:33:49.487Z,100381.25
2023-02-27T08:36:17.416Z,100383.94
2023-02-27T08:38:47.234Z,100384.78
2023-02-27T08:41:15.181Z,100398.25
2023-02-27T08:43:43.495Z,100395.31
2023-02-27T08:46:11.304Z,100406.09
2023-02-27T08:48:39.472Z,100407.16
2023-02-27T08:51:07.876Z,100409.84
2023-02-27T08:53:35.628Z,100415.00
2023-02-27T08:56:05.529Z,100415.00
2023-02-27T08:58:33.279Z,100415.88
2023-02-27T09:01:01.820Z,100426.00
2023-02-27T09:03:30.929Z,100430.34
2023-02-27T09:05:59.357Z,100423.31
2023-02-27T09:08:27.161Z,100421.66
2023-02-27T09:10:57.803Z,100425.19
2023-02-27T09:13:27.432Z,100422.50
2023-02-27T09:15:55.187Z,100433.28
2023-02-27T09:18:23.645Z,100430.56
2023-02-27T09:20:52.207Z,100439.47
2023-02-27T09:23:20.673Z,100449.63
2023-02-27T09:25:48.396Z,100452.31
2023-02-27T09:28:16.775Z,100446.94
2023-02-27T09:30:46.262Z,100443.59
2023-02-27T09:33:15.314Z,100449.00
2023-02-27T09:35:43.545Z,100450.03
2023-02-27T09:38:12.220Z,100443.00
2023-02-27T09:40:40.936Z,100447.53
2023-02-27T09:43:10.602Z,100461.88
2023-02-27T09:45:40.001Z,100461.00
2023-02-27T09:48:09.627Z,100466.41
2023-02-27T09:50:39.339Z,100470.13
2023-02-27T09:53:07.366Z,100472.00
2023-02-27T09:55:36.859Z,100471.19
2023-02-27T09:58:06.876Z,100470.31
2023-02-27T10:00:43.042Z,100474.69
2023-02-27T10:03:18.124Z,100473.88
2023-02-27T10:05:47.632Z,100478.41
2023-02-27T10:08:16.780Z,100480.09
2023-02-27T10:10:45.758Z,100484.66
2023-02-27T10:13:21.909Z,100474.69
2023-02-27T10:15:49.991Z,100474.69
2023-02-27T10:18:28.191Z,100473.66
2023-02-27T10:20:57.763Z,100476.34
2023-02-27T10:23:29.606Z,100480.72
2023-02-27T10:25:57.309Z,100485.88
2023-02-27T10:28:25.595Z,100491.28
2023-02-27T10:30:54.557Z,100488.81
2023-02-27T10:33:28.149Z,100493.97
2023-02-27T10:35:56.069Z,100484.25
2023-02-27T10:38:27.788Z,100470.78
2023-02-27T10:40:55.544Z,100483.41
2023-02-27T10:43:23.320Z,100486.13
2023-02-27T10:45:51.814Z,100479.69
2023-02-27T10:48:19.561Z,100484.25
2023-02-27T10:50:51.790Z,100482.56
2023-02-27T10:53:20.216Z,100489.63
2023-02-27T10:55:49.747Z,100481.75
2023-02-27T10:58:19.590Z,100482.56
2023-02-27T11:00:50.252Z,100489.63
2023-02-27T11:03:19.941Z,100474.47
2023-02-27T11:05:55.162Z,100469.94
2023-02-27T11:08:23.167Z,100473.66
2023-02-27T11:10:55.766Z,100476.34
2023-02-27T11:13:24.700Z,100465.56
2023-02-27T11:16:03.888Z,100467.25
2023-02-27T11:18:31.634Z,100465.56
2023-02-27T11:21:12.373Z,100458.31
2023-02-27T11:23:40.088Z,100474.28
2023-02-27T11:26:11.259Z,100474.28
2023-02-27T11:28:39.702Z,100481.31
2023-02-27T11:31:07.823Z,100482.38
2023-02-27T11:33:36.455Z,100488.81
2023-02-27T11:36:04.974Z,100497.91
2023-02-27T11:38:34.879Z,100484.66
2023-02-27T11:41:03.784Z,100497.06
2023-02-27T11:43:32.392Z,100492.75
2023-02-27T11:46:04.342Z,100494.56
2023-02-27T11:48:34.294Z,100515.31
2023-02-27T11:51:07.082Z,100516.34
2023-02-27T11:53:46.533Z,100518.22
2023-02-27T11:56:14.569Z,100517.34
2023-02-27T11:58:44.549Z,100518.22
2023-02-27T12:01:17.292Z,100519.22
2023-02-27T12:03:48.395Z,100521.94
2023-02-27T12:06:18.950Z,100516.53
2023-02-27T12:08:49.449Z,100510.31
2023-02-27T12:11:17.558Z,100511.16
2023-02-27T12:13:47.444Z,100511.16
2023-02-27T12:16:17.638Z,100516.53
2023-02-27T12:18:48.423Z,100511.97
2023-02-27T12:21:16.230Z,100512.81
2023-02-27T12:23:44.677Z,100510.97
2023-02-27T12:26:15.603Z,100510.75
2023-02-27T12:28:46.635Z,100525.66
2023-02-27T12:31:29.496Z,100519.47
2023-02-27T12:33:59.037Z,100520.50
2023-02-27T12:36:26.714Z,100525.25
2023-02-27T12:38:55.322Z,100518.22
2023-02-27T12:41:38.318Z,100523.59
2023-02-27T12:44:24.453Z,100528.13
2023-02-27T12:46:53.024Z,100512.81
2023-02-27T12:49:23.570Z,100510.13
2023-02-27T12:51:52.792Z,100511.16
2023-02-27T12:54:23.084Z,100523.78
2023-02-27T12:56:55.268Z,100535.41
2023-02-27T12:59:31.084Z,100529.00
2023-02-27T13:02:01.378Z,100522.97
2023-02-27T13:04:29.508Z,100533.75
2023-02-27T13:07:00.976Z,100528.34
2023-02-27T13:09:31.057Z,100530.41
2023-02-27T13:12:02.730Z,100530.41
2023-02-27T13:14:31.789Z,100531.47
2023-02-27T13:17:01.137Z,100533.09
2023-02-27T13:19:30.762Z,100538.72
2023-02-27T13:22:01.574Z,100543.88
2023-02-27T13:24:29.494Z,100549.50
2023-02-27T13:26:59.558Z,100553.00
2023-02-27T13:29:34.924Z,100556.31
2023-02-27T13:32:06.178Z,100549.28
2023-02-27T13:34:35.160Z,100542.84
2023-02-27T13:37:03.382Z,100541.81
2023-02-27T13:39:41.821Z,100542.84
2023-02-27T13:42:44.166Z,100533.50
2023-02-27T13:45:26.739Z,100531.88
2023-02-27T13:47:57.012Z,100536.41
2023-02-27T13:50:50.326Z,100524.78
2023-02-27T13:53:22.062Z,100528.53
2023-02-27T13:55:49.745Z,100524.78
2023-02-27T13:58:19.136Z,100517.75
2023-02-27T14:00:54.868Z,100525.84
2023-02-27T14:03:26.595Z,100524.16
2023-02-27T14:05:55.209Z,100517.31
2023-02-27T14:08:23.370Z,100526.84
2023-02-27T14:10:59.068Z,100526.84
2023-02-27T14:13:45.289Z,100537.63
2023-02-27T14:16:14.155Z,100534.13
2023-02-27T14:19:02.313Z,100537.84
2023-02-27T14:21:49.252Z,100529.78
2023-02-27T14:24:18.317Z,100522.69
2023-02-27T14:26:46.798Z,100523.56
2023-02-27T14:29:16.316Z,100524.56
2023-02-27T14:31:44.456Z,100520.00
2023-02-27T14:34:12.989Z,100517.53
2023-02-27T14:36:42.029Z,100519.81
2023-02-27T14:39:19.965Z,100519.00
2023-02-27T14:41:49.673Z,100514.44
2023-02-27T14:44:21.418Z,100516.09
2023-02-27T14:46:49.116Z,100521.47
2023-02-27T14:49:20.243Z,100513.59
2023-02-27T14:51:49.186Z,100523.56
2023-02-27T14:54:17.245Z,100532.66
2023-02-27T14:56:56.087Z,100526.63
2023-02-27T14:59:24.113Z,100520.63
2023-02-27T15:01:52.554Z,100527.66
2023-02-27T15:04:21.889Z,100519.59
2023-02-27T15:06:50.258Z,100521.47
2023-02-27T15:09:20.748Z,100536.56
2023-02-27T15:12:02.574Z,100536.78
2023-02-27T15:14:33.528Z,100534.09
2023-02-27T15:17:01.997Z,100536.78
2023-02-27T15:19:30.071Z,100537.81
2023-02-27T15:21:59.576Z,100541.31
2023-02-27T15:24:31.324Z,100550.44
2023-02-27T15:27:02.143Z,100559.34
2023-02-27T15:29:31.913Z,100559.56
2023-02-27T15:32:01.032Z,100562.25
2023-02-27T15:34:31.378Z,100564.13
2023-02-27T15:36:59.285Z,100557.88
2023-02-27T15:39:27.056Z,100562.44
2023-02-27T15:41:56.426Z,100558.09
2023-02-27T15:44:25.273Z,100564.31
2023-02-27T15:46:53.086Z,100566.19
2023-02-27T15:49:23.340Z,100564.13
2023-02-27T15:51:55.432Z,100558.75
2023-02-27T15:54:24.491Z,100564.13
2023-02-27T15:56:52.134Z,100566.59
2023-02-27T15:59:20.716Z,100567.84
2023-02-27T16:01:49.739Z,100567.84
2023-02-27T16:04:20.906Z,100566.19
2023-02-27T16:06:51.762Z,100570.75
2023-02-27T16:09:23.396Z,100564.50
2023-02-27T16:11:51.068Z,100562.81
2023-02-27T16:14:38.525Z,100567.38
2023-02-27T16:17:21.041Z,100569.25
2023-02-27T16:19:49.490Z,100566.56
2023-02-27T16:22:19.183Z,100566.56
2023-02-27T16:24:47.008Z,100572.13
2023-02-27T16:27:19.272Z,100575.66
2023-02-27T16:29:46.950Z,100572.94
2023-02-27T16:32:21.434Z,100582.91
2023-02-27T16:34:49.102Z,100591.81
2023-02-27T16:37:22.330Z,100601.75
2023-02-27T16:39:50.433Z,100609.00
2023-02-27T16:42:18.070Z,100611.06
2023-02-27T16:44:50.237Z,100615.41
2023-02-27T16:47:17.915Z,100631.56
2023-02-27T16:49:48.277Z,100641.50
2023-02-27T16:52:15.890Z,100636.13
2023-02-27T16:54:45.013Z,100636.13
2023-02-27T16:57:15.488Z,100630.72
2023-02-27T16:59:44.169Z,100631.56
2023-02-27T17:02:14.041Z,100622.47
2023-02-27T17:04:44.296Z,100623.28
2023-02-27T17:07:14.034Z,100618.72
2023-02-27T17:09:41.806Z,100619.78
2023-02-27T17:12:10.888Z,100616.25
2023-02-27T17:14:45.479Z,100619.97
2023-02-27T17:17:13.295Z,100632.59
2023-02-27T17:19:40.948Z,100645.22
2023-02-27T17:22:09.430Z,100644.41
2023-02-27T17:24:37.763Z,100649.78
2023-02-27T17:27:05.519Z,100642.72
2023-02-27T17:29:35.459Z,100633.63
2023-02-27T17:32:03.179Z,100631.13
2023-02-27T17:34:32.013Z,100636.50
2023-02-27T17:36:59.697Z,100652.66
2023-02-27T17:39:27.366Z,100646.47
2023-02-27T17:41:55.950Z,100639.22
2023-02-27T17:44:23.666Z,100636.50
2023-02-27T17:46:52.719Z,100655.53
2023-02-27T17:49:21.249Z,100650.16
2023-02-27T17:51:48.943Z,100647.47
2023-02-27T17:54:17.001Z,100645.81
2023-02-27T17:56:47.436Z,100643.94
2023-02-27T17:59:30.845Z,100651.03
2023-02-27T18:02:01.630Z,100648.50
2023-02-27T18:04:29.459Z,100652.25
2023-02-27T18:06:57.158Z,100660.09
2023-02-27T18:09:25.702Z,100655.53
2023-02-27T18:11:53.418Z,100659.91
2023-02-27T18:14:21.160Z,100649.97
2023-02-27T18:16:49.693Z,100659.09
2023-02-27T18:19:18.901Z,100650.16
2023-02-27T18:21:47.298Z,100648.50
2023-02-27T18:24:17.285Z,100648.50
2023-02-27T18:26:45.443Z,100666.53
2023-02-27T18:29:34.504Z,100667.56
2023-02-27T18:32:02.350Z,100665.72
2023-02-27T18:34:31.478Z,100672.09
2023-02-27T18:37:00.748Z,100662.19
2023-02-27T18:39:28.631Z,100654.28
2023-02-27T18:41:56.278Z,100648.91
2023-02-27T18:44:24.840Z,100654.28
2023-02-27T18:46:52.544Z,100658.03
2023-02-27T18:49:21.094Z,100671.50
2023-02-27T18:51:50.181Z,100674.19
2023-02-27T18:54:17.920Z,100676.00
2023-02-27T18:56:46.515Z,100682.25
2023-02-27T18:59:14.188Z,100690.34
2023-02-27T19:01:43.693Z,100677.47
2023-02-27T19:04:13.322Z,100692.81
2023-02-27T19:06:42.103Z,100689.94
2023-02-27T19:09:14.460Z,100684.56
2023-02-27T19:11:42.131Z,100682.47
2023-02-27T19:14:11.273Z,100685.16
2023-02-27T19:16:39.097Z,100695.75
2023-02-27T19:19:08.703Z,100691.19
2023-02-27T19:21:37.512Z,100690.38
2023-02-27T19:24:05.418Z,100703.66
2023-02-27T19:26:34.742Z,100699.28
2023-02-27T19:29:03.363Z,100696.56
2023-02-27T19:31:31.279Z,100693.69
2023-02-27T19:34:01.171Z,100687.50
2023-02-27T19:36:29.444Z,100684.78
2023-02-27T19:38:57.316Z,100686.44
2023-02-27T19:41:25.984Z,100690.19
2023-02-27T19:43:55.219Z,100688.31
2023-02-27T19:46:24.853Z,100705.31
2023-02-27T19:48:52.800Z,100701.56
2023-02-27T19:51:21.150Z,100698.06
2023-02-27T19:53:52.767Z,100689.97
2023-02-27T19:56:21.069Z,100700.75
2023-02-27T19:59:26.902Z,100714.03
2023-02-27T20:01:56.813Z,100708.63
2023-02-27T20:04:26.040Z,100706.94
2023-02-27T20:06:55.495Z,100713.19
2023-02-27T20:09:23.517Z,100714.03
2023-02-27T20:11:55.465Z,100721.28
2023-02-27T20:14:23.168Z,100721.88
2023-02-27T20:16:53.509Z,100715.69
2023-02-27T20:19:22.693Z,100711.13
2023-02-27T20:21:52.628Z,100710.28
2023-02-27T20:24:21.269Z,100711.97
2023-02-27T20:26:51.694Z,100714.66
2023-02-27T20:29:20.021Z,100723.56
2023-02-27T20:31:48.087Z,100720.06
2023-02-27T20:34:18.654Z,100707.41
2023-02-27T20:36:47.763Z,100714.44
2023-02-27T20:39:16.662Z,100709.94
2023-02-27T20:41:44.943Z,100719.84
2023-02-27T20:44:16.170Z,100724.41
2023-02-27T20:46:43.974Z,100729.63
2023-02-27T20:49:12.211Z,100729.78
2023-02-27T20:51:41.151Z,100731.66
2023-02-27T20:54:10.499Z,100730.59
2023-02-27T20:56:41.631Z,100743.25
2023-02-27T20:59:09.965Z,100746.78
2023-02-27T21:01:38.728Z,100740.56
2023-02-27T21:04:07.651Z,100751.31
2023-02-27T21:06:35.560Z,100751.31
2023-02-27T21:09:04.541Z,100753.00
2023-02-27T21:11:33.635Z,100752.16
2023-02-27T21:14:03.668Z,100761.09
2023-02-27T21:16:32.367Z,100758.41
2023-02-27T21:19:00.131Z,100757.53
2023-02-27T21:21:29.987Z,100763.78
2023-02-27T21:23:58.096Z,100769.16
2023-02-27T21:26:26.032Z,100770.03
2023-02-27T21:29:03.549Z,100770.03
2023-02-27T21:31:32.648Z,100774.38
2023-02-27T21:34:01.680Z,100780.81
2023-02-27T21:36:29.692Z,100777.06
2023-02-27T21:38:58.022Z,100776.25
2023-02-27T21:41:26.834Z,100776.88
2023-02-27T21:44:02.412Z,100767.94
2023-02-27T21:46:34.517Z,100767.94
2023-02-27T21:49:02.292Z,100767.13
2023-02-27T21:51:40.128Z,100769.63
2023-02-27T21:54:10.633Z,100761.75
2023-02-27T21:56:39.575Z,100771.69
2023-02-27T21:59:08.583Z,100771.69
2023-02-27T22:01:39.698Z,100767.34
2023-02-27T22:04:13.669Z,100767.50
2023-02-27T22:06:43.523Z,100765.84
2023-02-27T22:09:11.274Z,100764.16
2023-02-27T22:11:40.888Z,100749.03
2023-02-27T22:14:11.639Z,100750.91
2023-02-27T22:16:39.288Z,100756.47
2023-02-27T22:19:07.640Z,100774.50
2023-02-27T22:21:36.153Z,100775.31
2023-02-27T22:24:03.809Z,100778.19
2023-02-27T22:26:31.853Z,100777.34
2023-02-27T22:29:00.998Z,100786.47
2023-02-27T22:31:30.645Z,100789.16
2023-02-27T22:34:00.394Z,100794.56
2023-02-27T22:36:30.479Z,100795.56
2023-02-27T22:38:58.155Z,100792.88
2023-02-27T22:41:26.318Z,100788.53
2023-02-27T22:44:07.067Z,100783.13
2023-02-27T22:46:36.711Z,100792.25
2023-02-27T22:49:04.751Z,100798.47
2023-02-27T22:51:34.489Z,100786.03
2023-02-27T22:54:03.150Z,100788.91
2023-02-27T22:56:30.803Z,100791.59
2023-02-27T23:02:34.066Z,100778.16
2023-02-27T23:05:04.503Z,100780.00
2023-02-27T23:07:33.448Z,100788.09
2023-02-27T23:10:01.772Z,100792.66
2023-02-27T23:12:29.494Z,100789.94
2023-02-27T23:18:31.499Z,100796.34
2023-02-27T23:21:00.409Z,100800.91
2023-02-27T23:23:29.218Z,100800.91
2023-02-27T23:25:57.007Z,100803.41
2023-02-27T23:28:25.315Z,100808.16
2023-02-27T23:31:11.302Z,100812.50
2023-02-27T23:33:41.017Z,100811.50
2023-02-27T23:36:08.794Z,100814.19
2023-02-27T23:38:36.479Z,100819.56
2023-02-27T23:41:07.813Z,100819.56
2023-02-27T23:43:35.626Z,100812.31
2023-02-27T23:46:06.800Z,100815.00
2023-02-27T23:48:34.770Z,100821.22
2023-02-27T23:51:04.025Z,100816.88
2023-02-27T23:53:32.081Z,100815.00
2023-02-27T23:55:59.738Z,100807.13
2023-02-27T23:58:27.432Z,100817.88
